الصفحة الرئيسية
METAR-TAF:

METAR-TAF

مطار :

Mahikeng, جنوب أفريقيا

دائرة عرض: 25-47S, خط طول: 025-32E, ارتفاع: 1281 متر

مراقبة الطقس الحالي

تاريخ ووقت الإصدار 4ساعات و 41 دقيقة قبل الساعة 18:00UTC
ريح 9 عقدة من الشمال الشرقي
درجة الحرارة 23°درجة مئوية
الرطوبة 61%
ضغط 1017 hPa
الرؤية 10 كم أو أكثر
غيوم قليلة على ارتفاع 3000 قدم

METAR: FAMM 131800Z 04009KT 9999 FEW030 23/15 Q1017 NOSIG

زمن: 00:41 (22:41 UTC)

توقعات

تاريخ ووقت الإصدار 12ساعات و 41 دقيقة قبل الساعة 10:00UTC
التوقعات صالحة من13 الساعة 10 UTC إلى 13 الساعة 18 UTC
ريح 18 عقدة من الشمال الشرقي
الرؤية 10 كم أو أكثر
غيوم متفرقة على ارتفاع 3500 قدم
نظرية الاحتمالات 30% :
مؤقت
من 13 الساعة 12 UTC إلى 13 الساعة 16 UTC
غيوم قليلة على ارتفاع 4000 قدم, مزن ركامية عمودية.

TAF: FAMM 131000Z 1310/1318 04018KT 9999 SCT035 TX29/1313Z TN24/1318Z PROB30 TEMPO 1312/1316 FEW040TCU

أرصاد الطقس والتوقعات من أكثر من 4000 مطار (تقارير الطقس للمطار METAR والتنبؤ بالطقس بالمطارTAF).

المحطات المتاحة هي النقط الصفراء والحمراء على الخريطة.

حرك المؤشر فوق النقطة لمعرفة اسم المحطة.

ثم انقر لمعرفة أرصاد وتوقعات الطقس.

لتغيير الخارطة: اضغط على الأزرار الخضراء مع رمز الصليب الأسود للتكبير. على الزر الأخضر مع شرطة للتصغير، أو على الأسهم الخضراء للخرائط المجاورة.


METAR-TAF: